Norsol — LG7350 — position and weather

sailwx.info

Track history (hours):
 
Tides and Currents Weather Stations Pressure Air Temp Water Temp Dewpoint Dewpoint Depression Visibility Wind Speed Wind Dir Waves Ship Positions

Norsol

Last reported at 2018-May-23 15:37 UTC. Time now 2018-Jul-22 04:31 UTC.
Position N 69°39' E 018°58'.
Warning: this ship's position is 59 days out of date.

Length 11 m.

Type: Fishing. MMSI: 257313700.

Date/timePositionNaut miles runAvg speedWind from/ knotsBaromVisibWave heightAir tempDewpointWater temp
2018-May-23 15:37N 69°39' E 018°58'0 0.0
2018-May-23 15:28N 69°39' E 018°58'0 0.0
2018-May-23 14:58N 69°39' E 018°58'0 0.0
2018-May-23 14:28N 69°39' E 018°58'0 0.0
2018-May-23 13:58N 69°39' E 018°58'0 0.0
2018-May-23 11:22N 69°39' E 018°58'0 0.0
2018-May-23 10:58N 69°39' E 018°58'0 0.0
2018-May-23 10:28N 69°39' E 018°58'0 0.0
2018-May-23 09:58N 69°39' E 018°58'0 0.0
2018-May-23 09:28N 69°39' E 018°58'0 0.0
2018-May-23 08:58N 69°39' E 018°58'0 0.0
2018-May-23 08:28N 69°39' E 018°58'0 0.0
2018-May-23 07:58N 69°39' E 018°58'0 0.0
2018-May-23 07:28N 69°39' E 018°58'0 0.0
2018-May-23 06:58N 69°39' E 018°58'0 0.0
2018-May-23 06:28N 69°39' E 018°58'0 0.0
2018-May-23 05:58N 69°39' E 018°58'0 0.0
2018-May-23 05:28N 69°39' E 018°58'0 0.0
2018-May-23 04:58N 69°39' E 018°58'0 0.0
2018-May-23 04:28N 69°39' E 018°58'0 0.0
2018-May-23 03:58N 69°39' E 018°58'0 0.0
2018-May-23 03:28N 69°39' E 018°58'0 0.0
2018-May-23 02:58N 69°39' E 018°58'0 0.0
2018-May-23 02:28N 69°39' E 018°58'0 0.0
2018-May-23 01:58N 69°39' E 018°58'0 0.0
2018-May-23 01:28N 69°39' E 018°58'0 0.0
2018-May-23 00:58N 69°39' E 018°58'0 0.0
2018-May-23 00:28N 69°39' E 018°58'0 0.0
2018-May-22 23:58N 69°39' E 018°58'0 0.0
2018-May-22 23:28N 69°39' E 018°58'0 0.0
2018-May-22 22:58N 69°39' E 018°58'3 5.4
2018-May-22 22:28N 69°37' E 018°54'4 9.0
2018-May-22 22:00N 69°34' E 018°46'32 8.1
2018-May-22 18:01N 69°09' E 017°47'3 9.1
2018-May-22 17:43N 69°07' E 017°40'2 9.1
2018-May-22 17:30N 69°07' E 017°35'  
Track history (hours):
 
Tides and Currents Weather Stations Pressure Air Temp Water Temp Dewpoint Dewpoint Depression Visibility Wind Speed Wind Dir Waves Ship Positions

Norsol

Last reported at 2018-May-23 15:37 UTC. Time now 2018-Jul-22 04:31 UTC.
Position N 69°39' E 018°58'.
Warning: this ship's position is 59 days out of date.

Length 11 m.

Type: Fishing. MMSI: 257313700.

Date/timePositionNaut miles runAvg speedWind from/ knotsBaromVisibWave heightAir tempDewpointWater temp
2018-May-23 15:37N 69°39' E 018°58'0 0.0
2018-May-23 15:28N 69°39' E 018°58'0 0.0
2018-May-23 14:58N 69°39' E 018°58'0 0.0
2018-May-23 14:28N 69°39' E 018°58'0 0.0
2018-May-23 13:58N 69°39' E 018°58'0 0.0
2018-May-23 11:22N 69°39' E 018°58'0 0.0
2018-May-23 10:58N 69°39' E 018°58'0 0.0
2018-May-23 10:28N 69°39' E 018°58'0 0.0
2018-May-23 09:58N 69°39' E 018°58'0 0.0
2018-May-23 09:28N 69°39' E 018°58'0 0.0
2018-May-23 08:58N 69°39' E 018°58'0 0.0
2018-May-23 08:28N 69°39' E 018°58'0 0.0
2018-May-23 07:58N 69°39' E 018°58'0 0.0
2018-May-23 07:28N 69°39' E 018°58'0 0.0
2018-May-23 06:58N 69°39' E 018°58'0 0.0
2018-May-23 06:28N 69°39' E 018°58'0 0.0
2018-May-23 05:58N 69°39' E 018°58'0 0.0
2018-May-23 05:28N 69°39' E 018°58'0 0.0
2018-May-23 04:58N 69°39' E 018°58'0 0.0
2018-May-23 04:28N 69°39' E 018°58'0 0.0
2018-May-23 03:58N 69°39' E 018°58'0 0.0
2018-May-23 03:28N 69°39' E 018°58'0 0.0
2018-May-23 02:58N 69°39' E 018°58'0 0.0
2018-May-23 02:28N 69°39' E 018°58'0 0.0
2018-May-23 01:58N 69°39' E 018°58'0 0.0
2018-May-23 01:28N 69°39' E 018°58'0 0.0
2018-May-23 00:58N 69°39' E 018°58'0 0.0
2018-May-23 00:28N 69°39' E 018°58'0 0.0
2018-May-22 23:58N 69°39' E 018°58'0 0.0
2018-May-22 23:28N 69°39' E 018°58'0 0.0
2018-May-22 22:58N 69°39' E 018°58'3 5.4
2018-May-22 22:28N 69°37' E 018°54'4 9.0
2018-May-22 22:00N 69°34' E 018°46'32 8.1
2018-May-22 18:01N 69°09' E 017°47'3 9.1
2018-May-22 17:43N 69°07' E 017°40'2 9.1
2018-May-22 17:30N 69°07' E 017°35'  

Dump ship's entire track history